Terminal Aerodrome Forecast
Issued by NWS Twin Cities, MN

Home | Current Version | Previous Version | Graphics & Text | Print | Product List | Glossary On
Versions: 1 2 3 4 5 6 7 8 9 10 11 12 13 14 15 16 17
000
FTUS43 KMPX 220557 CCA
TAFEAU
TAF COR
KEAU 220557Z 2206/2306 VRB03KT P6SM SCT250
      TEMPO 2207/2210 3/4SM BR
     FM221200 VRB03KT P6SM BKN100
     FM222000 26006KT P6SM BKN100
     FM230300 31009KT P6SM OVC020=

USA.gov is the U.S. government's official web portal to all federal, state and local government web resources and services.